Time,TemperatureF,DewpointF,PressureIn,WindDirection,WindDirectionDegrees,WindSpeedMPH,WindSpeedGustMPH,Humidity,HourlyPrecipIn,Conditions,Clouds,dailyrainin,SoftwareType,DateUTC
2013-06-20 00:02:00,71.0,54.0,-100.00,SSE,165,5.0,7.0,55,0.00,,,-99.99,,2013-06-20 05:02:00,
2013-06-20 00:12:00,71.0,54.0,-100.00,SSE,165,5.0,7.0,55,0.00,,,-99.99,,2013-06-20 05:12:00,
2013-06-20 00:22:00,71.0,54.0,-100.00,SSE,165,4.0,6.0,55,0.00,,,-99.99,,2013-06-20 05:22:00,
2013-06-20 00:33:00,71.0,54.0,-100.00,SSE,165,4.0,6.0,55,0.00,,,-99.99,,2013-06-20 05:33:00,
2013-06-20 00:44:00,70.0,54.0,-100.00,South,170,5.0,7.0,57,0.00,,,-99.99,,2013-06-20 05:44:00,
2013-06-20 00:53:00,69.0,55.0,-100.00,South,180,6.0,8.0,59,0.00,,,-99.99,,2013-06-20 05:53:00,
2013-06-20 01:02:00,69.0,55.0,-100.00,South,185,6.0,7.0,61,0.00,,,-99.99,,2013-06-20 06:02:00,
2013-06-20 01:11:00,69.0,55.0,-100.00,South,185,6.0,7.0,61,0.00,,,-99.99,,2013-06-20 06:11:00,
2013-06-20 01:22:00,69.0,55.0,-100.00,SSW,195,6.0,7.0,62,0.00,,,-99.99,,2013-06-20 06:22:00,
2013-06-20 01:33:00,69.0,55.0,-100.00,SSW,195,6.0,7.0,62,0.00,,,-99.99,,2013-06-20 06:33:00,
2013-06-20 01:43:00,68.0,55.0,-100.00,South,185,6.0,8.0,63,0.00,,,-99.99,,2013-06-20 06:43:00,
2013-06-20 01:53:00,68.0,55.0,-100.00,South,185,6.0,8.0,63,0.00,,,-99.99,,2013-06-20 06:53:00,
2013-06-20 02:01:00,68.0,56.0,-100.00,South,185,6.0,7.0,64,0.00,,,-99.99,,2013-06-20 07:01:00,
2013-06-20 02:12:00,68.0,56.0,-100.00,South,185,7.0,9.0,64,0.00,,,-99.99,,2013-06-20 07:12:00,
2013-06-20 02:22:00,68.0,56.0,-100.00,South,185,7.0,9.0,64,0.00,,,-99.99,,2013-06-20 07:22:00,
2013-06-20 02:34:00,68.0,56.0,-100.00,South,185,7.0,9.0,64,0.00,,,-99.99,,2013-06-20 07:34:00,
2013-06-20 02:44:00,68.0,56.0,-100.00,South,180,6.0,8.0,64,0.00,,,-99.99,,2013-06-20 07:44:00,
2013-06-20 02:52:00,68.0,55.0,-100.00,South,190,7.0,9.0,64,0.00,,,-99.99,,2013-06-20 07:52:00,
2013-06-20 03:02:00,68.0,55.0,-100.00,South,190,7.0,9.0,64,0.00,,,-99.99,,2013-06-20 08:02:00,
2013-06-20 03:11:00,68.0,55.0,-100.00,South,180,6.0,9.0,64,0.00,,,-99.99,,2013-06-20 08:11:00,
2013-06-20 03:22:00,67.0,55.0,-100.00,South,185,6.0,9.0,65,0.00,,,-99.99,,2013-06-20 08:22:00,
2013-06-20 03:34:00,67.0,55.0,-100.00,South,185,6.0,9.0,65,0.00,,,-99.99,,2013-06-20 08:34:00,
2013-06-20 03:43:00,67.0,55.0,-100.00,South,185,7.0,10.0,66,0.00,,,-99.99,,2013-06-20 08:43:00,
2013-06-20 03:53:00,67.0,55.0,-100.00,South,185,6.0,9.0,66,0.00,,,-99.99,,2013-06-20 08:53:00,
2013-06-20 04:02:00,66.0,55.0,-100.00,South,185,7.0,9.0,67,0.00,,,-99.99,,2013-06-20 09:02:00,
2013-06-20 04:12:00,66.0,55.0,-100.00,South,185,7.0,9.0,67,0.00,,,-99.99,,2013-06-20 09:12:00,
2013-06-20 04:22:00,66.0,55.0,-100.00,South,185,7.0,9.0,67,0.00,,,-99.99,,2013-06-20 09:22:00,
2013-06-20 04:33:00,66.0,55.0,-100.00,South,185,7.0,9.0,67,0.00,,,-99.99,,2013-06-20 09:33:00,
2013-06-20 04:42:00,66.0,55.0,-100.00,South,175,7.0,9.0,67,0.00,,,-99.99,,2013-06-20 09:42:00,
2013-06-20 04:52:00,65.0,55.0,-100.00,South,180,6.0,9.0,69,0.00,,,-99.99,,2013-06-20 09:52:00,
2013-06-20 05:01:00,65.0,55.0,-100.00,South,180,6.0,8.0,70,0.00,,,-99.99,,2013-06-20 10:01:00,
2013-06-20 05:11:00,64.0,55.0,-100.00,South,185,6.0,7.0,72,0.00,,,-99.99,,2013-06-20 10:11:00,
2013-06-20 05:22:00,64.0,55.0,-100.00,South,185,6.0,7.0,72,0.00,,,-99.99,,2013-06-20 10:22:00,
2013-06-20 05:34:00,64.0,55.0,-100.00,South,180,7.0,9.0,73,0.00,,,-99.99,,2013-06-20 10:34:00,
2013-06-20 05:43:00,64.0,55.0,-100.00,South,180,6.0,9.0,74,0.00,,,-99.99,,2013-06-20 10:43:00,
2013-06-20 05:53:00,64.0,55.0,-100.00,South,180,6.0,9.0,74,0.00,,,-99.99,,2013-06-20 10:53:00,
2013-06-20 06:02:00,64.0,56.0,-100.00,South,175,6.0,8.0,74,0.00,,,-99.99,,2013-06-20 11:02:00,
2013-06-20 06:12:00,65.0,56.0,-100.00,South,170,6.0,8.0,74,0.00,,,-99.99,,2013-06-20 11:12:00,
2013-06-20 06:22:00,65.0,56.0,-100.00,South,170,6.0,8.0,74,0.00,,,-99.99,,2013-06-20 11:22:00,
2013-06-20 06:34:00,65.0,56.0,-100.00,South,180,4.0,7.0,74,0.00,,,-99.99,,2013-06-20 11:34:00,
2013-06-20 06:42:00,66.0,57.0,-100.00,South,190,6.0,7.0,73,0.00,,,-99.99,,2013-06-20 11:42:00,
2013-06-20 06:53:00,68.0,58.0,-100.00,South,185,5.0,7.0,70,0.00,,,-99.99,,2013-06-20 11:53:00,
2013-06-20 07:02:00,68.0,58.0,-100.00,South,185,5.0,7.0,70,0.00,,,-99.99,,2013-06-20 12:02:00,
2013-06-20 07:11:00,68.0,58.0,-100.00,South,190,6.0,7.0,69,0.00,,,-99.99,,2013-06-20 12:11:00,
2013-06-20 07:22:00,69.0,58.0,-100.00,South,185,6.0,9.0,66,0.00,,,-99.99,,2013-06-20 12:22:00,
2013-06-20 07:34:00,69.0,58.0,-100.00,South,185,6.0,9.0,66,0.00,,,-99.99,,2013-06-20 12:34:00,
2013-06-20 07:43:00,71.0,58.0,-100.00,South,185,6.0,9.0,64,0.00,,,-99.99,,2013-06-20 12:43:00,
2013-06-20 07:53:00,72.0,58.0,-100.00,SSW,195,7.0,9.0,61,0.00,,,-99.99,,2013-06-20 12:53:00,
2013-06-20 08:02:00,72.0,58.0,-100.00,SSW,195,7.0,9.0,61,0.00,,,-99.99,,2013-06-20 13:02:00,
2013-06-20 08:11:00,73.0,58.0,-100.00,SSW,200,7.0,9.0,59,0.00,,,-99.99,,2013-06-20 13:11:00,
2013-06-20 08:22:00,74.0,58.0,-100.00,SSW,210,7.0,10.0,57,0.00,,,-99.99,,2013-06-20 13:22:00,
2013-06-20 08:33:00,74.0,58.0,-100.00,SSW,210,7.0,10.0,57,0.00,,,-99.99,,2013-06-20 13:33:00,
2013-06-20 08:42:00,75.0,58.0,-100.00,SSW,200,6.0,9.0,55,0.00,,,-99.99,,2013-06-20 13:42:00,
2013-06-20 08:53:00,77.0,59.0,-100.00,SSW,210,4.0,9.0,54,0.00,,,-99.99,,2013-06-20 13:53:00,
2013-06-20 09:02:00,78.0,58.0,-100.00,SW,230,6.0,11.0,51,0.00,,,-99.99,,2013-06-20 14:02:00,
2013-06-20 09:11:00,78.0,58.0,-100.00,SW,230,6.0,11.0,51,0.00,,,-99.99,,2013-06-20 14:11:00,
2013-06-20 09:22:00,78.0,58.0,-100.00,SSW,210,7.0,11.0,49,0.00,,,-99.99,,2013-06-20 14:22:00,
2013-06-20 09:32:00,79.0,58.0,-100.00,SSW,210,9.0,12.0,48,0.00,,,-99.99,,2013-06-20 14:32:00,
2013-06-20 09:42:00,80.0,58.0,-100.00,SSW,210,10.0,14.0,46,0.00,,,-99.99,,2013-06-20 14:42:00,
2013-06-20 09:53:00,80.0,57.0,-100.00,SW,215,11.0,14.0,44,0.00,,,-99.99,,2013-06-20 14:53:00,
2013-06-20 10:02:00,80.0,57.0,-100.00,SW,215,11.0,14.0,44,0.00,,,-99.99,,2013-06-20 15:02:00,
2013-06-20 10:11:00,81.0,57.0,-100.00,SSW,200,9.0,16.0,44,0.00,,,-99.99,,2013-06-20 15:11:00,
2013-06-20 10:22:00,81.0,57.0,-100.00,SSW,200,9.0,16.0,44,0.00,,,-99.99,,2013-06-20 15:22:00,
2013-06-20 10:33:00,82.0,58.0,-100.00,SW,215,11.0,16.0,43,0.00,,,-99.99,,2013-06-20 15:33:00,
2013-06-20 10:43:00,83.0,59.0,-100.00,SSW,200,6.0,15.0,44,0.00,,,-99.99,,2013-06-20 15:43:00,
2013-06-20 10:53:00,83.0,59.0,-100.00,SSW,200,6.0,15.0,44,0.00,,,-99.99,,2013-06-20 15:53:00,
2013-06-20 11:01:00,83.0,58.0,-100.00,SSW,210,7.0,16.0,43,0.00,,,-99.99,,2013-06-20 16:01:00,
2013-06-20 11:11:00,84.0,59.0,-100.00,WSW,240,7.0,14.0,42,0.00,,,-99.99,,2013-06-20 16:11:00,
2013-06-20 11:22:00,85.0,59.0,-100.00,SW,220,6.0,12.0,42,0.00,,,-99.99,,2013-06-20 16:22:00,
2013-06-20 11:33:00,85.0,59.0,-100.00,SW,220,6.0,12.0,42,0.00,,,-99.99,,2013-06-20 16:33:00,
2013-06-20 11:42:00,85.0,59.0,-100.00,SSW,205,12.0,17.0,41,0.00,,,-99.99,,2013-06-20 16:42:00,
2013-06-20 11:52:00,86.0,59.0,-100.00,SW,230,9.0,12.0,40,0.00,,,-99.99,,2013-06-20 16:52:00,
2013-06-20 12:02:00,86.0,58.0,-100.00,WSW,245,6.0,12.0,39,0.00,,,-99.99,,2013-06-20 17:02:00,
2013-06-20 12:12:00,86.0,58.0,-100.00,WSW,245,6.0,12.0,39,0.00,,,-99.99,,2013-06-20 17:12:00,
2013-06-20 12:22:00,86.0,59.0,-100.00,SW,220,9.0,16.0,39,0.00,,,-99.99,,2013-06-20 17:22:00,
2013-06-20 12:32:00,86.0,59.0,-100.00,SW,220,9.0,16.0,39,0.00,,,-99.99,,2013-06-20 17:32:00,
2013-06-20 12:43:00,87.0,59.0,-100.00,South,185,10.0,17.0,39,0.00,,,-99.99,,2013-06-20 17:43:00,
2013-06-20 12:53:00,87.0,59.0,-100.00,South,185,10.0,17.0,39,0.00,,,-99.99,,2013-06-20 17:53:00,
2013-06-20 13:01:00,88.0,59.0,-100.00,SSW,205,11.0,15.0,38,0.00,,,-99.99,,2013-06-20 18:01:00,
2013-06-20 13:11:00,88.0,59.0,-100.00,SSW,205,11.0,15.0,38,0.00,,,-99.99,,2013-06-20 18:11:00,
2013-06-20 13:22:00,89.0,59.0,-100.00,SSW,200,10.0,14.0,37,0.00,,,-99.99,,2013-06-20 18:22:00,
2013-06-20 13:33:00,87.0,58.0,-100.00,SW,215,12.0,18.0,38,0.00,,,-99.99,,2013-06-20 18:33:00,
2013-06-20 13:43:00,88.0,59.0,-100.00,SSW,200,7.0,20.0,36,0.00,,,-99.99,,2013-06-20 18:43:00,
2013-06-20 13:53:00,88.0,59.0,-100.00,SSW,200,7.0,20.0,36,0.00,,,-99.99,,2013-06-20 18:53:00,
2013-06-20 14:01:00,88.0,58.0,-100.00,SSW,210,9.0,20.0,36,0.00,,,-99.99,,2013-06-20 19:01:00,
2013-06-20 14:11:00,89.0,58.0,-100.00,SSW,210,8.0,18.0,35,0.00,,,-99.99,,2013-06-20 19:11:00,
2013-06-20 14:22:00,89.0,58.0,-100.00,SSW,210,8.0,18.0,35,0.00,,,-99.99,,2013-06-20 19:22:00,
2013-06-20 14:34:00,89.0,58.0,-100.00,SSW,205,13.0,20.0,35,0.00,,,-99.99,,2013-06-20 19:34:00,
2013-06-20 14:43:00,89.0,58.0,-100.00,SSW,200,6.0,17.0,35,0.00,,,-99.99,,2013-06-20 19:43:00,
2013-06-20 14:52:00,89.0,58.0,-100.00,South,190,13.0,18.0,35,0.00,,,-99.99,,2013-06-20 19:52:00,
2013-06-20 15:02:00,89.0,58.0,-100.00,South,190,13.0,18.0,35,0.00,,,-99.99,,2013-06-20 20:02:00,
2013-06-20 15:11:00,89.0,58.0,-100.00,South,190,12.0,20.0,35,0.00,,,-99.99,,2013-06-20 20:11:00,
2013-06-20 15:33:00,89.0,57.0,-100.00,South,190,12.0,21.0,34,0.00,,,-99.99,,2013-06-20 20:33:00,
2013-06-20 15:42:00,89.0,58.0,-100.00,SSW,205,12.0,21.0,34,0.00,,,-99.99,,2013-06-20 20:42:00,
2013-06-20 15:52:00,89.0,57.0,-100.00,SSW,200,13.0,21.0,33,0.00,,,-99.99,,2013-06-20 20:52:00,
2013-06-20 16:01:00,89.0,57.0,-100.00,SSW,200,13.0,21.0,33,0.00,,,-99.99,,2013-06-20 21:01:00,